VIV6232 MMHO-MMMX
Flight info
| Callsign | VIV6232 |
|---|---|
| Flight time | 2h 7m |
| Altitude | 39000 |
| Route | SEBEK1B SEBEK UJ7 CEN UT49 DGO UJ63 AGU UT129 DARAN DARAN3A |
| Aircraft | A320/M-SDE2E3FGHIJ1RWXY/LB1 |
Departure
| Time | 2026-05-06 03:45 |
|---|---|
| Airport | General Ignacio L. Pesqueira International Airport (MMHO) |
Arrival
| Time | 2026-05-06 05:52 |
|---|---|
| Airport | Mexico City Benito Juárez International Airport (MMMX) |
| Time | Latitude | Longitude | Altitude | Speed | Heading |
|---|---|---|---|---|---|
| 2026-05-06 03:21 | 29.09089 | -111.05191 | 643 ft | 0 kts | 148° |
| 2026-05-06 03:34 | 29.09090 | -111.05192 | 643 ft | 2 kts | 148° |
| 2026-05-06 03:35 | 29.09105 | -111.05202 | 643 ft | 2 kts | 148° |
| 2026-05-06 03:35 | 29.09120 | -111.05213 | 646 ft | 3 kts | 148° |
| 2026-05-06 03:35 | 29.09135 | -111.05224 | 644 ft | 3 kts | 127° |
| 2026-05-06 03:35 | 29.09143 | -111.05243 | 643 ft | 3 kts | 89° |
| 2026-05-06 03:36 | 29.09139 | -111.05263 | 645 ft | 3 kts | 52° |
| 2026-05-06 03:36 | 29.09131 | -111.05273 | 644 ft | 2 kts | 45° |
| 2026-05-06 03:36 | 29.09121 | -111.05285 | 642 ft | 0 kts | 56° |
| 2026-05-06 03:39 | 29.09124 | -111.05279 | 643 ft | 2 kts | 58° |
| 2026-05-06 03:39 | 29.09134 | -111.05261 | 646 ft | 4 kts | 59° |
| 2026-05-06 03:40 | 29.09151 | -111.05228 | 644 ft | 6 kts | 59° |
| 2026-05-06 03:40 | 29.09176 | -111.05180 | 643 ft | 8 kts | 59° |
| 2026-05-06 03:40 | 29.09209 | -111.05117 | 644 ft | 10 kts | 59° |
| 2026-05-06 03:40 | 29.09235 | -111.05066 | 645 ft | 12 kts | 59° |
| 2026-05-06 03:41 | 29.09299 | -111.04948 | 644 ft | 15 kts | 58° |
| 2026-05-06 03:41 | 29.09358 | -111.04839 | 645 ft | 16 kts | 58° |
| 2026-05-06 03:41 | 29.09368 | -111.04716 | 645 ft | 15 kts | 92° |
| 2026-05-06 03:41 | 29.09397 | -111.04604 | 647 ft | 16 kts | 44° |
| 2026-05-06 03:42 | 29.09473 | -111.04498 | 646 ft | 18 kts | 54° |
| 2026-05-06 03:42 | 29.09543 | -111.04386 | 648 ft | 17 kts | 54° |
| 2026-05-06 03:42 | 29.09619 | -111.04268 | 647 ft | 20 kts | 53° |
| 2026-05-06 03:42 | 29.09699 | -111.04159 | 648 ft | 16 kts | 22° |
| 2026-05-06 03:43 | 29.09792 | -111.04199 | 648 ft | 15 kts | 330° |
| 2026-05-06 03:43 | 29.09851 | -111.04269 | 647 ft | 11 kts | 255° |
| 2026-05-06 03:43 | 29.09834 | -111.04310 | 646 ft | 0 kts | 237° |
| 2026-05-06 03:44 | 29.09833 | -111.04312 | 646 ft | 2 kts | 237° |
| 2026-05-06 03:44 | 29.09779 | -111.04417 | 644 ft | 47 kts | 239° |
| 2026-05-06 03:45 | 29.09436 | -111.05059 | 640 ft | 138 kts | 239° |
| 2026-05-06 03:45 | 29.08832 | -111.06209 | 942 ft | 184 kts | 239° |
| 2026-05-06 03:45 | 29.08616 | -111.06625 | 1145 ft | 193 kts | 240° |
| 2026-05-06 03:45 | 29.07354 | -111.08960 | 2323 ft | 220 kts | 238° |
| 2026-05-06 03:46 | 29.06517 | -111.10503 | 2937 ft | 237 kts | 239° |
| 2026-05-06 03:46 | 29.05628 | -111.12170 | 3573 ft | 255 kts | 239° |
| 2026-05-06 03:46 | 29.04687 | -111.13942 | 4396 ft | 264 kts | 239° |
| 2026-05-06 03:46 | 29.03623 | -111.15659 | 5352 ft | 267 kts | 227° |
| 2026-05-06 03:47 | 29.02176 | -111.16999 | 6282 ft | 271 kts | 210° |
| 2026-05-06 03:47 | 29.00425 | -111.17832 | 7186 ft | 275 kts | 194° |
| 2026-05-06 03:47 | 28.98513 | -111.18067 | 8068 ft | 279 kts | 177° |
| 2026-05-06 03:47 | 28.97210 | -111.17863 | 8644 ft | 282 kts | 166° |
| 2026-05-06 03:48 | 28.94839 | -111.16618 | 9746 ft | 288 kts | 143° |
| 2026-05-06 03:48 | 28.93270 | -111.15150 | 10441 ft | 297 kts | 140° |
| 2026-05-06 03:48 | 28.91643 | -111.13589 | 10877 ft | 314 kts | 140° |
| 2026-05-06 03:48 | 28.89923 | -111.11936 | 11276 ft | 331 kts | 140° |
| 2026-05-06 03:49 | 28.88112 | -111.10201 | 11637 ft | 348 kts | 140° |
| 2026-05-06 03:49 | 28.86231 | -111.08401 | 12186 ft | 356 kts | 140° |
| 2026-05-06 03:49 | 28.84316 | -111.06574 | 12878 ft | 360 kts | 140° |
| 2026-05-06 03:49 | 28.82386 | -111.04739 | 13581 ft | 363 kts | 140° |
| 2026-05-06 03:50 | 28.81094 | -111.03512 | 14023 ft | 366 kts | 140° |
| 2026-05-06 03:50 | 28.78488 | -111.01038 | 14892 ft | 370 kts | 140° |
| 2026-05-06 03:50 | 28.76495 | -110.99145 | 15515 ft | 374 kts | 140° |
| 2026-05-06 03:50 | 28.74486 | -110.97238 | 16119 ft | 377 kts | 140° |
| 2026-05-06 03:51 | 28.72461 | -110.95315 | 16716 ft | 381 kts | 140° |
| 2026-05-06 03:51 | 28.70417 | -110.93373 | 17318 ft | 385 kts | 140° |
| 2026-05-06 03:51 | 28.68354 | -110.91414 | 17918 ft | 388 kts | 140° |
| 2026-05-06 03:51 | 28.66263 | -110.89435 | 18518 ft | 392 kts | 140° |
| 2026-05-06 03:52 | 28.64156 | -110.87441 | 19120 ft | 396 kts | 140° |
| 2026-05-06 03:52 | 28.62750 | -110.86107 | 19527 ft | 398 kts | 140° |
| 2026-05-06 03:52 | 28.60607 | -110.84076 | 20096 ft | 402 kts | 140° |
| 2026-05-06 03:52 | 28.58441 | -110.82025 | 20687 ft | 406 kts | 140° |
| 2026-05-06 03:53 | 28.56255 | -110.79960 | 21244 ft | 409 kts | 140° |
| 2026-05-06 03:53 | 28.54057 | -110.77889 | 21765 ft | 412 kts | 140° |
| 2026-05-06 03:53 | 28.51846 | -110.75803 | 22260 ft | 415 kts | 140° |
| 2026-05-06 03:53 | 28.49615 | -110.73698 | 22738 ft | 418 kts | 140° |
| 2026-05-06 03:54 | 28.47370 | -110.71578 | 23207 ft | 420 kts | 140° |
| 2026-05-06 03:54 | 28.45136 | -110.69469 | 23654 ft | 423 kts | 140° |
| 2026-05-06 03:54 | 28.42863 | -110.67329 | 24092 ft | 426 kts | 140° |
| 2026-05-06 03:54 | 28.41318 | -110.65875 | 24377 ft | 427 kts | 140° |
| 2026-05-06 03:55 | 28.38267 | -110.63004 | 24913 ft | 431 kts | 140° |
| 2026-05-06 03:55 | 28.35951 | -110.60823 | 25303 ft | 433 kts | 140° |
| 2026-05-06 03:55 | 28.33629 | -110.58636 | 25676 ft | 436 kts | 140° |
| 2026-05-06 03:55 | 28.31287 | -110.56433 | 26035 ft | 438 kts | 140° |
| 2026-05-06 03:56 | 28.28934 | -110.54221 | 26410 ft | 441 kts | 140° |
| 2026-05-06 03:56 | 28.26562 | -110.51994 | 26772 ft | 443 kts | 140° |
| 2026-05-06 03:56 | 28.24178 | -110.49761 | 27126 ft | 446 kts | 141° |
| 2026-05-06 03:56 | 28.21779 | -110.47517 | 27468 ft | 448 kts | 141° |
| 2026-05-06 03:57 | 28.19394 | -110.45287 | 27791 ft | 451 kts | 141° |
| 2026-05-06 03:57 | 28.16966 | -110.43018 | 28121 ft | 453 kts | 141° |
| 2026-05-06 03:57 | 28.14520 | -110.40730 | 28432 ft | 456 kts | 140° |
| 2026-05-06 03:57 | 28.12063 | -110.38430 | 28719 ft | 459 kts | 140° |
| 2026-05-06 03:58 | 28.09593 | -110.36119 | 29039 ft | 461 kts | 140° |
| 2026-05-06 03:58 | 28.07119 | -110.33805 | 29358 ft | 462 kts | 141° |
| 2026-05-06 03:58 | 28.04632 | -110.31483 | 29645 ft | 464 kts | 141° |
| 2026-05-06 03:58 | 28.02136 | -110.29155 | 30045 ft | 463 kts | 141° |
| 2026-05-06 03:59 | 27.99653 | -110.26843 | 30493 ft | 461 kts | 141° |
| 2026-05-06 03:59 | 27.97201 | -110.24577 | 30911 ft | 460 kts | 143° |
| 2026-05-06 03:59 | 27.94551 | -110.22560 | 31322 ft | 459 kts | 148° |
| 2026-05-06 03:59 | 27.91849 | -110.20650 | 31714 ft | 458 kts | 148° |
| 2026-05-06 04:00 | 27.89150 | -110.18742 | 32113 ft | 457 kts | 148° |
| 2026-05-06 04:00 | 27.86455 | -110.16835 | 32504 ft | 456 kts | 148° |
| 2026-05-06 04:00 | 27.83764 | -110.14929 | 32902 ft | 455 kts | 148° |
| 2026-05-06 04:00 | 27.81082 | -110.13026 | 33290 ft | 454 kts | 148° |
| 2026-05-06 04:01 | 27.78409 | -110.11130 | 33669 ft | 453 kts | 148° |
| 2026-05-06 04:01 | 27.75737 | -110.09240 | 34058 ft | 452 kts | 148° |
| 2026-05-06 04:01 | 27.73065 | -110.07356 | 34435 ft | 452 kts | 148° |
| 2026-05-06 04:01 | 27.70394 | -110.05476 | 34806 ft | 451 kts | 148° |
| 2026-05-06 04:02 | 27.67735 | -110.03605 | 35158 ft | 450 kts | 148° |
| 2026-05-06 04:02 | 27.65114 | -110.01759 | 35498 ft | 449 kts | 148° |
| 2026-05-06 04:02 | 27.62465 | -109.99889 | 35824 ft | 448 kts | 148° |
| 2026-05-06 04:02 | 27.59819 | -109.98020 | 36141 ft | 448 kts | 148° |
| 2026-05-06 04:03 | 27.57179 | -109.96159 | 36439 ft | 447 kts | 148° |
| 2026-05-06 04:03 | 27.54542 | -109.94301 | 36712 ft | 447 kts | 148° |
| 2026-05-06 04:03 | 27.51906 | -109.92446 | 36968 ft | 447 kts | 148° |
| 2026-05-06 04:03 | 27.49267 | -109.90594 | 37214 ft | 447 kts | 148° |
| 2026-05-06 04:04 | 27.47514 | -109.89364 | 37378 ft | 447 kts | 148° |
| 2026-05-06 04:04 | 27.43979 | -109.86886 | 37688 ft | 447 kts | 148° |
| 2026-05-06 04:04 | 27.41462 | -109.84833 | 37929 ft | 447 kts | 139° |
| 2026-05-06 04:04 | 27.39277 | -109.82350 | 38155 ft | 446 kts | 129° |
| 2026-05-06 04:05 | 27.37479 | -109.79504 | 38357 ft | 447 kts | 120° |
| 2026-05-06 04:05 | 27.36002 | -109.76429 | 38536 ft | 447 kts | 118° |
| 2026-05-06 04:05 | 27.34538 | -109.73330 | 38712 ft | 448 kts | 118° |
| 2026-05-06 04:05 | 27.33076 | -109.70239 | 38900 ft | 448 kts | 118° |
| 2026-05-06 04:06 | 27.30151 | -109.64071 | 39007 ft | 450 kts | 118° |
| 2026-05-06 04:06 | 27.27195 | -109.57874 | 39004 ft | 450 kts | 118° |
| 2026-05-06 04:07 | 27.24234 | -109.51678 | 39006 ft | 450 kts | 118° |
| 2026-05-06 04:07 | 27.21270 | -109.45483 | 39014 ft | 450 kts | 118° |
| 2026-05-06 04:08 | 27.18310 | -109.39291 | 39005 ft | 450 kts | 118° |
| 2026-05-06 04:08 | 27.15344 | -109.33096 | 39008 ft | 450 kts | 118° |
| 2026-05-06 04:09 | 27.12372 | -109.26896 | 39014 ft | 451 kts | 118° |
| 2026-05-06 04:09 | 27.09419 | -109.20740 | 39017 ft | 451 kts | 118° |
| 2026-05-06 04:10 | 27.06442 | -109.14544 | 39007 ft | 451 kts | 118° |
| 2026-05-06 04:10 | 27.03448 | -109.08347 | 38995 ft | 452 kts | 118° |
| 2026-05-06 04:11 | 27.00440 | -109.02130 | 38999 ft | 453 kts | 118° |
| 2026-05-06 04:11 | 26.97415 | -108.95879 | 38986 ft | 457 kts | 118° |
| 2026-05-06 04:12 | 26.94405 | -108.89661 | 39034 ft | 452 kts | 118° |
| 2026-05-06 04:12 | 26.91401 | -108.83479 | 39029 ft | 452 kts | 118° |
| 2026-05-06 04:13 | 26.88908 | -108.78335 | 39026 ft | 452 kts | 118° |
| 2026-05-06 04:13 | 26.85418 | -108.71142 | 39028 ft | 452 kts | 118° |
| 2026-05-06 04:14 | 26.82403 | -108.64940 | 38999 ft | 455 kts | 118° |
| 2026-05-06 04:14 | 26.79367 | -108.58731 | 39035 ft | 452 kts | 119° |
| 2026-05-06 04:15 | 26.76350 | -108.52570 | 39033 ft | 451 kts | 118° |
| 2026-05-06 04:15 | 26.73342 | -108.46416 | 39018 ft | 451 kts | 118° |
| 2026-05-06 04:16 | 26.70325 | -108.40250 | 39005 ft | 451 kts | 118° |
| 2026-05-06 04:16 | 26.67310 | -108.34086 | 39005 ft | 452 kts | 118° |
| 2026-05-06 04:17 | 26.64281 | -108.27920 | 39022 ft | 452 kts | 119° |
| 2026-05-06 04:17 | 26.61244 | -108.21761 | 38996 ft | 453 kts | 119° |
| 2026-05-06 04:18 | 26.58099 | -108.15688 | 38993 ft | 455 kts | 126° |
| 2026-05-06 04:18 | 26.54413 | -108.09928 | 38985 ft | 457 kts | 126° |
| 2026-05-06 04:19 | 26.50719 | -108.04157 | 39008 ft | 456 kts | 126° |
| 2026-05-06 04:19 | 26.47010 | -107.98372 | 38989 ft | 458 kts | 126° |
| 2026-05-06 04:20 | 26.43925 | -107.93578 | 39022 ft | 457 kts | 126° |
| 2026-05-06 04:20 | 26.39583 | -107.86832 | 38996 ft | 460 kts | 126° |
| 2026-05-06 04:21 | 26.35841 | -107.81036 | 39028 ft | 458 kts | 126° |
| 2026-05-06 04:21 | 26.32152 | -107.75319 | 39028 ft | 456 kts | 126° |
| 2026-05-06 04:22 | 26.28456 | -107.69610 | 39004 ft | 454 kts | 126° |
| 2026-05-06 04:23 | 26.22888 | -107.60986 | 38992 ft | 457 kts | 126° |
| 2026-05-06 04:23 | 26.19167 | -107.55252 | 38995 ft | 458 kts | 126° |
| 2026-05-06 04:24 | 26.15428 | -107.49490 | 38996 ft | 460 kts | 126° |
| 2026-05-06 04:24 | 26.11683 | -107.43720 | 38998 ft | 461 kts | 126° |
| 2026-05-06 04:25 | 26.07947 | -107.37977 | 39000 ft | 462 kts | 126° |
| 2026-05-06 04:25 | 26.04186 | -107.32209 | 39019 ft | 460 kts | 126° |
| 2026-05-06 04:26 | 26.00422 | -107.26441 | 39025 ft | 460 kts | 126° |
| 2026-05-06 04:26 | 25.96694 | -107.20708 | 39039 ft | 455 kts | 126° |
| 2026-05-06 04:27 | 25.92960 | -107.14997 | 39004 ft | 458 kts | 126° |
| 2026-05-06 04:27 | 25.89199 | -107.09260 | 38999 ft | 461 kts | 126° |
| 2026-05-06 04:28 | 25.85460 | -107.03548 | 39010 ft | 461 kts | 126° |
| 2026-05-06 04:28 | 25.81688 | -106.97767 | 38985 ft | 465 kts | 126° |
| 2026-05-06 04:29 | 25.77884 | -106.91936 | 38992 ft | 467 kts | 126° |
| 2026-05-06 04:29 | 25.75344 | -106.88057 | 39028 ft | 462 kts | 126° |
| 2026-05-06 04:30 | 25.70282 | -106.80332 | 38998 ft | 466 kts | 126° |
| 2026-05-06 04:30 | 25.66472 | -106.74528 | 39026 ft | 464 kts | 126° |
| 2026-05-06 04:31 | 25.62698 | -106.68785 | 39036 ft | 459 kts | 126° |
| 2026-05-06 04:31 | 25.58919 | -106.63042 | 39002 ft | 460 kts | 126° |
| 2026-05-06 04:32 | 25.55149 | -106.57308 | 38973 ft | 463 kts | 126° |
| 2026-05-06 04:32 | 25.51369 | -106.51573 | 39006 ft | 463 kts | 126° |
| 2026-05-06 04:33 | 25.47551 | -106.45795 | 38992 ft | 466 kts | 126° |
| 2026-05-06 04:33 | 25.43744 | -106.40051 | 38987 ft | 464 kts | 126° |
| 2026-05-06 04:34 | 25.39908 | -106.34280 | 38985 ft | 465 kts | 127° |
| 2026-05-06 04:34 | 25.36030 | -106.28563 | 38998 ft | 465 kts | 127° |
| 2026-05-06 04:35 | 25.32125 | -106.22852 | 39003 ft | 466 kts | 127° |
| 2026-05-06 04:35 | 25.28244 | -106.17155 | 39006 ft | 464 kts | 127° |
| 2026-05-06 04:36 | 25.24366 | -106.11451 | 39010 ft | 465 kts | 127° |
| 2026-05-06 04:36 | 25.20469 | -106.05724 | 38994 ft | 467 kts | 127° |
| 2026-05-06 04:37 | 25.16592 | -106.00035 | 39003 ft | 466 kts | 127° |
| 2026-05-06 04:37 | 25.12678 | -105.94309 | 39012 ft | 466 kts | 127° |
| 2026-05-06 04:38 | 25.09424 | -105.89547 | 39009 ft | 466 kts | 127° |
| 2026-05-06 04:38 | 25.05517 | -105.83822 | 39008 ft | 467 kts | 127° |
| 2026-05-06 04:39 | 25.00969 | -105.77172 | 39014 ft | 466 kts | 127° |
| 2026-05-06 04:39 | 24.97684 | -105.72388 | 39011 ft | 467 kts | 127° |
| 2026-05-06 04:40 | 24.93762 | -105.66685 | 39017 ft | 466 kts | 127° |
| 2026-05-06 04:40 | 24.89877 | -105.61017 | 39021 ft | 466 kts | 127° |
| 2026-05-06 04:41 | 24.85956 | -105.55304 | 39014 ft | 468 kts | 127° |
| 2026-05-06 04:41 | 24.82023 | -105.49580 | 39018 ft | 468 kts | 127° |
| 2026-05-06 04:42 | 24.78086 | -105.43871 | 39028 ft | 467 kts | 127° |
| 2026-05-06 04:42 | 24.74175 | -105.38209 | 39032 ft | 465 kts | 127° |
| 2026-05-06 04:43 | 24.70269 | -105.32554 | 39029 ft | 463 kts | 127° |
| 2026-05-06 04:43 | 24.66362 | -105.26913 | 39012 ft | 464 kts | 127° |
| 2026-05-06 04:44 | 24.62475 | -105.21300 | 39003 ft | 465 kts | 127° |
| 2026-05-06 04:44 | 24.58552 | -105.15640 | 39010 ft | 465 kts | 127° |
| 2026-05-06 04:45 | 24.54631 | -105.09998 | 38992 ft | 468 kts | 127° |
| 2026-05-06 04:45 | 24.50676 | -105.04325 | 39007 ft | 467 kts | 127° |
| 2026-05-06 04:46 | 24.46725 | -104.98664 | 39010 ft | 466 kts | 127° |
| 2026-05-06 04:46 | 24.42785 | -104.93012 | 39017 ft | 466 kts | 127° |
| 2026-05-06 04:47 | 24.38844 | -104.87362 | 39014 ft | 466 kts | 127° |
| 2026-05-06 04:47 | 24.34897 | -104.81707 | 39017 ft | 465 kts | 127° |
| 2026-05-06 04:48 | 24.31635 | -104.77037 | 39032 ft | 463 kts | 128° |
| 2026-05-06 04:48 | 24.27048 | -104.70500 | 39024 ft | 463 kts | 128° |
| 2026-05-06 04:49 | 24.23120 | -104.64910 | 39013 ft | 463 kts | 128° |
| 2026-05-06 04:49 | 24.19196 | -104.59324 | 39013 ft | 462 kts | 128° |
| 2026-05-06 04:50 | 24.15271 | -104.53739 | 39018 ft | 462 kts | 128° |
| 2026-05-06 04:50 | 24.10736 | -104.48786 | 39004 ft | 462 kts | 140° |
| 2026-05-06 04:51 | 24.05848 | -104.44277 | 39001 ft | 462 kts | 140° |
| 2026-05-06 04:51 | 24.00938 | -104.39736 | 39009 ft | 462 kts | 140° |
| 2026-05-06 04:52 | 23.96023 | -104.35181 | 39011 ft | 463 kts | 140° |
| 2026-05-06 04:52 | 23.91113 | -104.30639 | 39010 ft | 462 kts | 140° |
| 2026-05-06 04:53 | 23.86204 | -104.26108 | 39018 ft | 461 kts | 140° |
| 2026-05-06 04:53 | 23.81297 | -104.21579 | 39011 ft | 462 kts | 140° |
| 2026-05-06 04:54 | 23.76381 | -104.17051 | 39006 ft | 463 kts | 140° |
| 2026-05-06 04:54 | 23.71436 | -104.12506 | 38989 ft | 465 kts | 140° |
| 2026-05-06 04:55 | 23.67328 | -104.08725 | 39007 ft | 464 kts | 140° |
| 2026-05-06 04:55 | 23.61591 | -104.03451 | 39015 ft | 464 kts | 140° |
| 2026-05-06 04:56 | 23.56642 | -103.98916 | 39006 ft | 465 kts | 140° |
| 2026-05-06 04:56 | 23.51684 | -103.94383 | 39006 ft | 464 kts | 140° |
| 2026-05-06 04:57 | 23.46742 | -103.89862 | 39006 ft | 464 kts | 140° |
| 2026-05-06 04:57 | 23.41822 | -103.85353 | 39008 ft | 466 kts | 140° |
| 2026-05-06 04:58 | 23.36844 | -103.80805 | 39009 ft | 466 kts | 140° |
| 2026-05-06 04:58 | 23.31877 | -103.76277 | 39015 ft | 465 kts | 140° |
| 2026-05-06 04:59 | 23.26913 | -103.71759 | 39022 ft | 465 kts | 140° |
| 2026-05-06 04:59 | 23.21986 | -103.67272 | 39016 ft | 465 kts | 140° |
| 2026-05-06 05:00 | 23.17021 | -103.62742 | 39016 ft | 466 kts | 140° |
| 2026-05-06 05:00 | 23.12045 | -103.58217 | 39019 ft | 466 kts | 140° |
| 2026-05-06 05:01 | 23.07049 | -103.53677 | 39011 ft | 468 kts | 140° |
| 2026-05-06 05:01 | 23.02067 | -103.49152 | 39031 ft | 465 kts | 140° |
| 2026-05-06 05:02 | 22.97146 | -103.44682 | 39029 ft | 464 kts | 140° |
| 2026-05-06 05:02 | 22.92179 | -103.40186 | 39012 ft | 465 kts | 140° |
| 2026-05-06 05:03 | 22.87207 | -103.35696 | 39019 ft | 464 kts | 140° |
| 2026-05-06 05:03 | 22.82237 | -103.31204 | 39018 ft | 464 kts | 140° |
| 2026-05-06 05:04 | 22.77293 | -103.26736 | 39011 ft | 465 kts | 140° |
| 2026-05-06 05:04 | 22.72303 | -103.22241 | 39003 ft | 467 kts | 140° |
| 2026-05-06 05:05 | 22.67299 | -103.17732 | 39008 ft | 468 kts | 140° |
| 2026-05-06 05:05 | 22.62308 | -103.13238 | 39030 ft | 465 kts | 140° |
| 2026-05-06 05:06 | 22.57336 | -103.08765 | 39021 ft | 464 kts | 140° |
| 2026-05-06 05:06 | 22.53205 | -103.05058 | 39028 ft | 463 kts | 140° |
| 2026-05-06 05:07 | 22.47433 | -102.99874 | 39006 ft | 464 kts | 140° |
| 2026-05-06 05:07 | 22.42460 | -102.95408 | 39013 ft | 464 kts | 140° |
| 2026-05-06 05:08 | 22.37492 | -102.90952 | 39029 ft | 463 kts | 140° |
| 2026-05-06 05:08 | 22.32527 | -102.86513 | 39027 ft | 463 kts | 140° |
| 2026-05-06 05:09 | 22.27557 | -102.82074 | 39020 ft | 464 kts | 140° |
| 2026-05-06 05:09 | 22.22582 | -102.77627 | 39017 ft | 464 kts | 140° |
| 2026-05-06 05:10 | 22.17626 | -102.73188 | 39013 ft | 465 kts | 140° |
| 2026-05-06 05:10 | 22.12644 | -102.68738 | 39016 ft | 466 kts | 141° |
| 2026-05-06 05:11 | 22.07624 | -102.64276 | 39008 ft | 467 kts | 141° |
| 2026-05-06 05:11 | 22.02623 | -102.59828 | 39003 ft | 466 kts | 141° |
| 2026-05-06 05:12 | 21.97619 | -102.55385 | 39010 ft | 467 kts | 141° |
| 2026-05-06 05:12 | 21.92615 | -102.50939 | 39031 ft | 465 kts | 141° |
| 2026-05-06 05:13 | 21.87631 | -102.46514 | 39030 ft | 463 kts | 141° |
| 2026-05-06 05:13 | 21.84334 | -102.43591 | 39022 ft | 464 kts | 141° |
| 2026-05-06 05:14 | 21.77699 | -102.37705 | 39028 ft | 463 kts | 141° |
| 2026-05-06 05:14 | 21.72994 | -102.33004 | 39010 ft | 462 kts | 128° |
| 2026-05-06 05:15 | 21.69903 | -102.26975 | 38998 ft | 463 kts | 108° |
| 2026-05-06 05:15 | 21.68179 | -102.20295 | 38988 ft | 465 kts | 105° |
| 2026-05-06 05:16 | 21.66441 | -102.13603 | 39005 ft | 465 kts | 105° |
| 2026-05-06 05:16 | 21.64689 | -102.06911 | 39015 ft | 464 kts | 105° |
| 2026-05-06 05:17 | 21.62952 | -102.00224 | 39011 ft | 464 kts | 105° |
| 2026-05-06 05:17 | 21.61218 | -101.93529 | 39016 ft | 465 kts | 105° |
| 2026-05-06 05:18 | 21.59480 | -101.86825 | 39006 ft | 466 kts | 105° |
| 2026-05-06 05:18 | 21.57747 | -101.80168 | 39025 ft | 465 kts | 105° |
| 2026-05-06 05:19 | 21.55533 | -101.73665 | 39018 ft | 464 kts | 120° |
| 2026-05-06 05:19 | 21.52016 | -101.67838 | 39015 ft | 465 kts | 123° |
| 2026-05-06 05:20 | 21.48449 | -101.62042 | 39007 ft | 466 kts | 123° |
| 2026-05-06 05:20 | 21.44884 | -101.56235 | 39007 ft | 465 kts | 123° |
| 2026-05-06 05:21 | 21.41310 | -101.50437 | 39002 ft | 466 kts | 123° |
| 2026-05-06 05:21 | 21.37733 | -101.44637 | 39006 ft | 466 kts | 123° |
| 2026-05-06 05:22 | 21.34153 | -101.38838 | 39010 ft | 466 kts | 123° |
| 2026-05-06 05:22 | 21.30565 | -101.33041 | 39012 ft | 465 kts | 123° |
| 2026-05-06 05:23 | 21.26979 | -101.27257 | 39009 ft | 465 kts | 123° |
| 2026-05-06 05:23 | 21.21618 | -101.18606 | 38989 ft | 467 kts | 123° |
| 2026-05-06 05:24 | 21.18017 | -101.12811 | 39006 ft | 466 kts | 124° |
| 2026-05-06 05:24 | 21.15031 | -101.08010 | 39011 ft | 465 kts | 124° |
| 2026-05-06 05:25 | 21.11444 | -101.02240 | 39010 ft | 464 kts | 124° |
| 2026-05-06 05:25 | 21.07863 | -100.96487 | 39009 ft | 464 kts | 124° |
| 2026-05-06 05:26 | 21.04126 | -100.90856 | 39017 ft | 464 kts | 127° |
| 2026-05-06 05:26 | 21.00150 | -100.85414 | 39007 ft | 464 kts | 128° |
| 2026-05-06 05:27 | 20.96180 | -100.80023 | 39016 ft | 463 kts | 128° |
| 2026-05-06 05:27 | 20.92249 | -100.74558 | 39018 ft | 464 kts | 127° |
| 2026-05-06 05:28 | 20.88336 | -100.69058 | 39014 ft | 464 kts | 127° |
| 2026-05-06 05:28 | 20.84408 | -100.63565 | 39013 ft | 465 kts | 128° |
| 2026-05-06 05:29 | 20.80463 | -100.58070 | 38993 ft | 467 kts | 128° |
| 2026-05-06 05:29 | 20.77175 | -100.53494 | 39002 ft | 467 kts | 128° |
| 2026-05-06 05:30 | 20.72552 | -100.47084 | 39027 ft | 465 kts | 128° |
| 2026-05-06 05:30 | 20.68606 | -100.41625 | 39027 ft | 464 kts | 128° |
| 2026-05-06 05:31 | 20.64686 | -100.36179 | 39023 ft | 464 kts | 128° |
| 2026-05-06 05:31 | 20.60753 | -100.30712 | 39027 ft | 464 kts | 128° |
| 2026-05-06 05:32 | 20.56814 | -100.25254 | 38646 ft | 465 kts | 128° |
| 2026-05-06 05:32 | 20.54818 | -100.22499 | 37629 ft | 473 kts | 128° |
| 2026-05-06 05:32 | 20.52801 | -100.19718 | 36793 ft | 474 kts | 128° |
| 2026-05-06 05:33 | 20.50784 | -100.16931 | 36011 ft | 473 kts | 128° |
| 2026-05-06 05:33 | 20.48775 | -100.14151 | 35150 ft | 474 kts | 128° |
| 2026-05-06 05:33 | 20.46758 | -100.11362 | 34291 ft | 474 kts | 128° |
| 2026-05-06 05:33 | 20.44740 | -100.08572 | 33345 ft | 476 kts | 128° |
| 2026-05-06 05:34 | 20.42711 | -100.05768 | 32278 ft | 479 kts | 128° |
| 2026-05-06 05:34 | 20.40687 | -100.02976 | 31220 ft | 471 kts | 128° |
| 2026-05-06 05:34 | 20.38705 | -100.00246 | 30120 ft | 463 kts | 128° |
| 2026-05-06 05:34 | 20.36717 | -99.97508 | 28918 ft | 470 kts | 128° |
| 2026-05-06 05:35 | 20.34740 | -99.94787 | 26875 ft | 464 kts | 129° |
| 2026-05-06 05:35 | 20.32807 | -99.92123 | 26745 ft | 444 kts | 130° |
| 2026-05-06 05:35 | 20.30954 | -99.89568 | 26640 ft | 426 kts | 130° |
| 2026-05-06 05:35 | 20.29158 | -99.87094 | 26104 ft | 421 kts | 130° |
| 2026-05-06 05:36 | 20.27362 | -99.84629 | 25420 ft | 420 kts | 129° |
| 2026-05-06 05:36 | 20.25572 | -99.82179 | 24741 ft | 419 kts | 129° |
| 2026-05-06 05:36 | 20.23729 | -99.79791 | 24074 ft | 417 kts | 135° |
| 2026-05-06 05:36 | 20.21566 | -99.77750 | 23368 ft | 414 kts | 144° |
| 2026-05-06 05:37 | 20.19114 | -99.76176 | 22695 ft | 410 kts | 155° |
| 2026-05-06 05:37 | 20.16434 | -99.75088 | 22147 ft | 413 kts | 164° |
| 2026-05-06 05:37 | 20.13634 | -99.74448 | 21583 ft | 410 kts | 169° |
| 2026-05-06 05:37 | 20.10831 | -99.73891 | 21168 ft | 408 kts | 169° |
| 2026-05-06 05:38 | 20.08037 | -99.73337 | 21035 ft | 408 kts | 169° |
| 2026-05-06 05:38 | 20.05242 | -99.72785 | 21064 ft | 409 kts | 169° |
| 2026-05-06 05:38 | 20.02446 | -99.72231 | 21072 ft | 409 kts | 169° |
| 2026-05-06 05:38 | 19.99649 | -99.71675 | 21056 ft | 407 kts | 169° |
| 2026-05-06 05:39 | 19.97813 | -99.71310 | 20552 ft | 406 kts | 169° |
| 2026-05-06 05:39 | 19.94055 | -99.70561 | 19341 ft | 413 kts | 169° |
| 2026-05-06 05:39 | 19.91275 | -99.70006 | 19117 ft | 400 kts | 168° |
| 2026-05-06 05:39 | 19.88623 | -99.69476 | 19008 ft | 383 kts | 168° |
| 2026-05-06 05:40 | 19.86118 | -99.68894 | 18892 ft | 353 kts | 160° |
| 2026-05-06 05:40 | 19.83970 | -99.67807 | 18545 ft | 334 kts | 145° |
| 2026-05-06 05:40 | 19.82253 | -99.66199 | 17868 ft | 330 kts | 129° |
| 2026-05-06 05:40 | 19.80931 | -99.64217 | 17251 ft | 328 kts | 124° |
| 2026-05-06 05:41 | 19.79684 | -99.62200 | 16814 ft | 322 kts | 118° |
| 2026-05-06 05:41 | 19.78615 | -99.60119 | 16572 ft | 322 kts | 120° |
| 2026-05-06 05:41 | 19.77453 | -99.58131 | 16329 ft | 312 kts | 123° |
| 2026-05-06 05:41 | 19.76267 | -99.56230 | 16091 ft | 308 kts | 123° |
| 2026-05-06 05:42 | 19.75071 | -99.54337 | 15852 ft | 308 kts | 123° |
| 2026-05-06 05:42 | 19.73888 | -99.52442 | 15618 ft | 307 kts | 123° |
| 2026-05-06 05:42 | 19.72721 | -99.50547 | 15379 ft | 306 kts | 122° |
| 2026-05-06 05:42 | 19.71567 | -99.48645 | 15146 ft | 306 kts | 122° |
| 2026-05-06 05:43 | 19.70425 | -99.46744 | 14915 ft | 305 kts | 122° |
| 2026-05-06 05:43 | 19.69287 | -99.44842 | 14685 ft | 304 kts | 122° |
| 2026-05-06 05:43 | 19.68157 | -99.42948 | 14460 ft | 304 kts | 122° |
| 2026-05-06 05:43 | 19.67040 | -99.41080 | 14234 ft | 303 kts | 122° |
| 2026-05-06 05:44 | 19.65910 | -99.39191 | 14002 ft | 302 kts | 122° |
| 2026-05-06 05:44 | 19.64786 | -99.37312 | 13814 ft | 301 kts | 122° |
| 2026-05-06 05:44 | 19.64034 | -99.36056 | 13743 ft | 295 kts | 122° |
| 2026-05-06 05:44 | 19.62940 | -99.34239 | 13771 ft | 279 kts | 122° |
| 2026-05-06 05:45 | 19.61921 | -99.32546 | 13798 ft | 265 kts | 122° |
| 2026-05-06 05:45 | 19.60955 | -99.30940 | 13817 ft | 254 kts | 122° |
| 2026-05-06 05:45 | 19.59938 | -99.29362 | 13833 ft | 261 kts | 130° |
| 2026-05-06 05:45 | 19.58583 | -99.28064 | 13614 ft | 265 kts | 143° |
| 2026-05-06 05:46 | 19.57091 | -99.26915 | 13309 ft | 265 kts | 143° |
| 2026-05-06 05:46 | 19.55603 | -99.25766 | 13016 ft | 264 kts | 143° |
| 2026-05-06 05:46 | 19.54115 | -99.24619 | 12731 ft | 264 kts | 145° |
| 2026-05-06 05:46 | 19.52470 | -99.23770 | 12479 ft | 262 kts | 163° |
| 2026-05-06 05:47 | 19.50698 | -99.23483 | 12309 ft | 257 kts | 178° |
| 2026-05-06 05:47 | 19.48905 | -99.23443 | 11905 ft | 256 kts | 178° |
| 2026-05-06 05:47 | 19.47141 | -99.23412 | 11600 ft | 251 kts | 178° |
| 2026-05-06 05:47 | 19.45417 | -99.23385 | 11310 ft | 244 kts | 178° |
| 2026-05-06 05:48 | 19.43769 | -99.23359 | 11040 ft | 235 kts | 179° |
| 2026-05-06 05:48 | 19.42677 | -99.23342 | 10858 ft | 229 kts | 179° |
| 2026-05-06 05:48 | 19.40621 | -99.23302 | 10544 ft | 218 kts | 174° |
| 2026-05-06 05:48 | 19.39187 | -99.22876 | 10295 ft | 214 kts | 151° |
| 2026-05-06 05:49 | 19.38050 | -99.21887 | 10019 ft | 211 kts | 128° |
| 2026-05-06 05:49 | 19.37382 | -99.20538 | 9778 ft | 206 kts | 105° |
| 2026-05-06 05:49 | 19.37243 | -99.19084 | 9591 ft | 190 kts | 84° |
| 2026-05-06 05:49 | 19.37561 | -99.17787 | 9445 ft | 176 kts | 64° |
| 2026-05-06 05:50 | 19.38141 | -99.16711 | 9312 ft | 162 kts | 58° |
| 2026-05-06 05:50 | 19.38717 | -99.15687 | 9180 ft | 161 kts | 57° |
| 2026-05-06 05:50 | 19.39289 | -99.14667 | 9029 ft | 161 kts | 57° |
| 2026-05-06 05:50 | 19.39856 | -99.13658 | 8832 ft | 160 kts | 57° |
| 2026-05-06 05:51 | 19.40419 | -99.12654 | 8592 ft | 158 kts | 57° |
| 2026-05-06 05:51 | 19.40982 | -99.11650 | 8279 ft | 157 kts | 57° |
| 2026-05-06 05:51 | 19.41540 | -99.10657 | 7978 ft | 157 kts | 57° |
| 2026-05-06 05:51 | 19.42094 | -99.09664 | 7681 ft | 156 kts | 57° |
| 2026-05-06 05:52 | 19.42639 | -99.08683 | 7405 ft | 154 kts | 57° |
| 2026-05-06 05:52 | 19.43189 | -99.07722 | 7306 ft | 144 kts | 55° |
| 2026-05-06 05:52 | 19.43567 | -99.07042 | 7303 ft | 74 kts | 59° |
| 2026-05-06 05:52 | 19.43779 | -99.06660 | 7303 ft | 38 kts | 59° |
| 2026-05-06 05:53 | 19.43925 | -99.06514 | 7303 ft | 20 kts | 5° |
| 2026-05-06 05:53 | 19.43963 | -99.06580 | 7303 ft | 12 kts | 272° |
| 2026-05-06 05:53 | 19.43963 | -99.06673 | 7303 ft | 14 kts | 268° |
| 2026-05-06 05:53 | 19.43966 | -99.06780 | 7303 ft | 15 kts | 283° |
| 2026-05-06 05:54 | 19.44042 | -99.06849 | 7303 ft | 13 kts | 329° |
| 2026-05-06 05:54 | 19.44087 | -99.06917 | 7303 ft | 12 kts | 245° |
| 2026-05-06 05:54 | 19.44041 | -99.07001 | 7303 ft | 14 kts | 239° |
| 2026-05-06 05:54 | 19.43986 | -99.07098 | 7303 ft | 16 kts | 239° |
| 2026-05-06 05:55 | 19.43925 | -99.07207 | 7303 ft | 18 kts | 239° |
| 2026-05-06 05:55 | 19.43881 | -99.07287 | 7303 ft | 19 kts | 239° |
| 2026-05-06 05:55 | 19.43783 | -99.07456 | 7303 ft | 21 kts | 240° |
| 2026-05-06 05:55 | 19.43710 | -99.07591 | 7303 ft | 22 kts | 237° |
| 2026-05-06 05:56 | 19.43628 | -99.07729 | 7303 ft | 22 kts | 243° |
| 2026-05-06 05:56 | 19.43557 | -99.07866 | 7303 ft | 19 kts | 238° |
| 2026-05-06 05:56 | 19.43485 | -99.07990 | 7303 ft | 21 kts | 239° |
| 2026-05-06 05:56 | 19.43409 | -99.08126 | 7303 ft | 22 kts | 241° |
| 2026-05-06 05:57 | 19.43329 | -99.08271 | 7303 ft | 16 kts | 238° |
| 2026-05-06 05:57 | 19.43312 | -99.08344 | 7303 ft | 9 kts | 308° |
| 2026-05-06 05:57 | 19.43341 | -99.08367 | 7303 ft | 6 kts | 327° |
| 2026-05-06 05:57 | 19.43371 | -99.08387 | 7303 ft | 0 kts | 329° |